createdAt,value
2019-05-30T00:00:18.977Z,52
2019-05-30T00:05:39.004Z,52
2019-05-30T00:15:49.122Z,53
2019-05-30T00:20:54.940Z,53
2019-05-30T00:25:59.411Z,54
2019-05-30T00:31:09.294Z,54
2019-05-30T00:36:19.067Z,55
2019-05-30T00:41:24.084Z,55
2019-05-30T00:46:29.170Z,55
2019-05-30T00:51:34.048Z,55
2019-05-30T00:56:39.024Z,56
2019-05-30T01:01:59.142Z,56
2019-05-30T01:07:14.110Z,56
2019-05-30T01:12:24.063Z,57
2019-05-30T01:17:34.065Z,57
2019-05-30T01:22:39.092Z,57
2019-05-30T01:27:43.997Z,58
2019-05-30T01:32:49.088Z,58
2019-05-30T01:37:54.056Z,58
2019-05-30T01:43:04.331Z,58
2019-05-30T01:48:14.288Z,58
2019-05-30T01:53:19.040Z,58
2019-05-30T01:58:24.062Z,58
2019-05-30T02:03:29.054Z,58
2019-05-30T02:08:33.999Z,57
2019-05-30T02:13:44.021Z,57
2019-05-30T02:18:54.230Z,58
2019-05-30T02:24:00.001Z,58
2019-05-30T02:29:04.444Z,58
2019-05-30T02:34:12.376Z,58
2019-05-30T02:39:14.225Z,58
2019-05-30T02:44:24.048Z,58
2019-05-30T02:49:34.058Z,58
2019-05-30T02:54:39.031Z,58
2019-05-30T02:59:44.041Z,60
2019-05-30T03:04:49.050Z,60
2019-05-30T03:14:49.162Z,62
2019-05-30T03:19:54.198Z,61
2019-05-30T03:24:59.241Z,60
2019-05-30T03:36:32.347Z,60
2019-05-30T03:40:28.100Z,59
2019-05-30T03:45:29.255Z,58
2019-05-30T03:50:34.200Z,57
2019-05-30T03:55:39.192Z,55
2019-05-30T04:00:51.770Z,52
2019-05-30T04:05:59.216Z,52
2019-05-30T04:11:04.286Z,50
2019-05-30T04:16:13.079Z,51
2019-05-30T04:21:20.821Z,51
2019-05-30T04:26:19.194Z,49
2019-05-30T04:31:29.219Z,49
2019-05-30T04:36:39.232Z,47
2019-05-30T04:41:44.177Z,46
2019-05-30T04:46:49.474Z,46
2019-05-30T04:51:54.221Z,44
2019-05-30T04:56:59.207Z,42
2019-05-30T05:02:04.210Z,42
2019-05-30T05:07:15.843Z,41
2019-05-30T05:12:24.167Z,40
2019-05-30T05:17:29.303Z,39
2019-05-30T05:27:29.347Z,37
2019-05-30T05:32:34.309Z,37
2019-05-30T05:37:39.347Z,36
2019-05-30T05:42:49.298Z,36
2019-05-30T05:47:59.328Z,36
2019-05-30T05:53:04.405Z,37
2019-05-30T05:58:09.301Z,38
2019-05-30T06:03:14.292Z,37
2019-05-30T06:08:19.781Z,35
2019-05-30T06:13:29.349Z,35
2019-05-30T06:18:39.223Z,36
2019-05-30T06:23:46.323Z,36
2019-05-30T06:28:49.456Z,35
2019-05-30T06:33:54.277Z,33
2019-05-30T06:38:59.317Z,32
2019-05-30T06:44:09.299Z,30
2019-05-30T06:49:20.800Z,32
2019-05-30T06:54:27.718Z,32
2019-05-30T06:59:30.045Z,31
2019-05-30T07:05:38.686Z,29
2019-05-30T07:09:39.289Z,30
2019-05-30T07:14:44.333Z,28
2019-05-30T07:19:49.295Z,28
2019-05-30T07:24:54.230Z,27
2019-05-30T07:29:59.250Z,27
2019-05-30T07:35:07.781Z,28
2019-05-30T07:40:09.334Z,28
2019-05-30T07:45:14.222Z,26
2019-05-30T07:50:19.282Z,26
2019-05-30T07:55:29.303Z,26
2019-05-30T08:00:39.267Z,26
2019-05-30T08:05:44.262Z,26
2019-05-30T08:10:49.253Z,26
2019-05-30T08:15:54.328Z,26
2019-05-30T08:20:59.218Z,26
2019-05-30T08:26:09.464Z,26
2019-05-30T08:31:19.277Z,26
2019-05-30T08:36:24.243Z,26
2019-05-30T08:41:29.383Z,26
2019-05-30T08:46:34.375Z,26
2019-05-30T08:56:36.785Z,25
2019-05-30T09:01:42.414Z,26
2019-05-30T09:06:46.473Z,28
2019-05-30T09:11:56.531Z,27
2019-05-30T09:17:06.559Z,28
2019-05-30T09:22:11.539Z,28
2019-05-30T09:27:16.502Z,28
2019-05-30T09:32:21.566Z,28
2019-05-30T09:37:26.486Z,26
2019-05-30T09:42:36.471Z,27
2019-05-30T09:47:49.257Z,26
2019-05-30T09:52:51.693Z,26
2019-05-30T09:57:56.496Z,26
2019-05-30T10:03:01.429Z,26
2019-05-30T10:08:06.512Z,25
2019-05-30T10:13:16.455Z,27
2019-05-30T10:18:26.546Z,26
2019-05-30T10:23:32.187Z,25
2019-05-30T10:33:31.791Z,26
2019-05-30T10:38:36.608Z,26
2019-05-30T10:43:41.606Z,26
2019-05-30T10:48:52.988Z,26
2019-05-30T10:54:01.638Z,26
2019-05-30T10:59:06.645Z,25
2019-05-30T11:04:11.581Z,26
2019-05-30T11:09:16.694Z,27
2019-05-30T11:14:21.682Z,27
2019-05-30T11:19:31.676Z,26
2019-05-30T11:24:41.614Z,26
2019-05-30T11:29:46.642Z,25
2019-05-30T11:34:52.919Z,26
2019-05-30T11:39:57.493Z,25
2019-05-30T15:52:53.299Z,29
2019-05-30T15:57:57.881Z,30
2019-05-30T16:03:02.903Z,31
2019-05-30T16:08:12.903Z,32
2019-05-30T16:13:22.841Z,32
2019-05-30T16:18:27.909Z,33
2019-05-30T16:23:32.851Z,33
2019-05-30T16:28:37.769Z,32
2019-05-30T16:33:42.871Z,34
2019-05-30T16:38:53.003Z,34
2019-05-30T16:44:02.851Z,34
2019-05-30T16:49:07.853Z,33
2019-05-30T16:54:12.851Z,33
2019-05-30T16:59:18.826Z,33
2019-05-30T17:04:23.279Z,34
2019-05-30T17:09:27.932Z,39
2019-05-30T17:14:37.875Z,43
2019-05-30T17:19:47.835Z,43
2019-05-30T17:24:54.846Z,44
2019-05-30T17:29:57.840Z,45
2019-05-30T17:35:02.775Z,45
2019-05-30T17:40:07.937Z,45
2019-05-30T17:45:19.214Z,45
2019-05-30T17:50:28.149Z,46
2019-05-30T17:55:32.847Z,46
2019-05-30T18:00:37.796Z,46
2019-05-30T18:05:42.871Z,47
2019-05-30T18:10:54.349Z,47
2019-05-30T18:15:57.813Z,48
2019-05-30T18:21:07.785Z,49
2019-05-30T18:26:12.809Z,49
2019-05-30T18:31:17.820Z,49
2019-05-30T18:36:22.811Z,50
2019-05-30T18:41:28.993Z,50
2019-05-30T18:46:38.908Z,50
2019-05-30T18:51:47.983Z,50
2019-05-30T18:56:52.799Z,50
2019-05-30T19:01:57.839Z,50
2019-05-30T19:11:57.943Z,50
2019-05-30T19:17:03.007Z,50
2019-05-30T19:22:08.050Z,50
2019-05-30T19:27:18.029Z,51
2019-05-30T19:32:28.854Z,51
2019-05-30T19:37:33.408Z,51
2019-05-30T19:47:34.256Z,52
2019-05-30T19:57:33.756Z,52
2019-05-30T20:02:38.667Z,52
2019-05-30T20:07:43.391Z,52
2019-05-30T20:12:53.306Z,53
2019-05-30T20:18:03.368Z,53
2019-05-30T20:23:08.331Z,53
2019-05-30T20:28:13.310Z,53
2019-05-30T20:33:18.405Z,54
2019-05-30T20:38:23.288Z,54
2019-05-30T20:48:24.213Z,56
2019-05-30T20:53:29.049Z,56
2019-05-30T20:58:34.033Z,56
2019-05-30T21:03:44.282Z,57
2019-05-30T21:13:49.204Z,57
2019-05-30T21:18:54.197Z,57
2019-05-30T21:23:59.497Z,57
2019-05-30T21:29:09.279Z,58
2019-05-30T21:34:19.349Z,58
2019-05-30T21:39:24.263Z,58
2019-05-30T21:44:29.238Z,58
2019-05-30T21:49:34.207Z,58
2019-05-30T21:59:34.339Z,57
2019-05-30T22:09:34.463Z,58
2019-05-30T22:14:39.488Z,59
2019-05-30T22:19:45.735Z,60
2019-05-30T22:24:54.513Z,60
2019-05-30T22:30:04.460Z,59
2019-05-30T22:35:09.581Z,60
2019-05-30T22:40:14.523Z,60
2019-05-30T22:45:19.487Z,60
2019-05-30T22:50:24.516Z,61
2019-05-30T22:55:34.682Z,62
2019-05-30T23:00:46.026Z,62
2019-05-30T23:05:49.594Z,63
2019-05-30T23:10:55.492Z,63
2019-05-30T23:15:59.452Z,63
2019-05-30T23:21:04.433Z,63
2019-05-30T23:26:14.469Z,63
2019-05-30T23:36:19.707Z,64
2019-05-30T23:41:24.723Z,64
2019-05-30T23:46:29.755Z,64
2019-05-30T23:51:39.732Z,64
2019-05-30T23:56:50.786Z,63
